Time;durP1;ratioP1;P1;durP2;ratioP2;P2;SDS_P1;SDS_P2;PMS_P1;PMS_P2;Temp;Humidity;BMP_temperature;BMP_pressure;BME280_temperature;BME280_humidity;BME280_pressure;Samples;Min_cycle;Max_cycle;Signal;HPM_P1;HPM_P2
2023/01/19 00:00:46;;;;;;;10.15;5.97;;;5.20;52.50;;;;;;4942071;28;20527;-47
2023/01/19 00:03:16;;;;;;;12.35;6.35;;;5.20;52.40;;;;;;4943001;28;20059;-45
2023/01/19 00:05:44;;;;;;;14.77;6.78;;;5.20;52.40;;;;;;4940136;28;20051;-46
2023/01/19 00:08:14;;;;;;;11.55;6.50;;;5.20;52.40;;;;;;4941743;28;20058;-46
2023/01/19 00:10:42;;;;;;;12.68;6.40;;;5.30;52.40;;;;;;4941214;28;20047;-45
2023/01/19 00:13:09;;;;;;;13.60;6.85;;;5.30;52.40;;;;;;4942108;28;20102;-45
2023/01/19 00:15:37;;;;;;;11.77;6.53;;;5.20;52.40;;;;;;4938355;28;20055;-45
2023/01/19 00:18:04;;;;;;;12.30;6.03;;;5.20;52.40;;;;;;4942347;28;20395;-47
2023/01/19 00:20:34;;;;;;;11.10;5.70;;;5.20;52.40;;;;;;4941795;28;20051;-45
2023/01/19 00:23:01;;;;;;;11.60;6.38;;;5.20;52.30;;;;;;4940731;28;20059;-45
2023/01/19 00:25:29;;;;;;;13.73;6.35;;;5.20;52.40;;;;;;4941689;28;20055;-45
2023/01/19 00:27:56;;;;;;;15.80;7.32;;;5.20;52.40;;;;;;4937587;28;20063;-48
2023/01/19 00:30:23;;;;;;;20.05;6.55;;;5.20;52.40;;;;;;4932742;28;20518;-45
2023/01/19 00:32:51;;;;;;;15.35;6.50;;;5.20;52.40;;;;;;4925814;28;20060;-48
2023/01/19 00:35:18;;;;;;;13.35;6.45;;;5.20;52.50;;;;;;4930451;28;20055;-48
2023/01/19 00:37:47;;;;;;;13.38;6.40;;;5.20;52.50;;;;;;4930630;28;20066;-49
2023/01/19 00:40:14;;;;;;;13.55;6.43;;;5.20;52.60;;;;;;4922544;28;20056;-46
2023/01/19 00:42:43;;;;;;;14.35;7.13;;;5.20;52.60;;;;;;4923268;28;20062;-48
2023/01/19 00:45:12;;;;;;;11.88;6.85;;;5.20;52.60;;;;;;4923945;28;20066;-46
2023/01/19 00:47:39;;;;;;;13.85;7.07;;;5.20;52.70;;;;;;4925955;28;20059;-47
2023/01/19 00:50:08;;;;;;;11.00;6.75;;;5.20;52.60;;;;;;4929708;28;20051;-50
2023/01/19 00:52:36;;;;;;;14.82;7.68;;;5.20;52.60;;;;;;4929019;28;20074;-45
2023/01/19 00:55:05;;;;;;;17.02;6.68;;;5.20;52.60;;;;;;4930776;28;20063;-46
2023/01/19 00:57:32;;;;;;;11.40;6.28;;;5.20;52.60;;;;;;4929181;28;20488;-49
2023/01/19 01:00:00;;;;;;;11.88;6.45;;;5.20;52.60;;;;;;4933254;28;20062;-46
2023/01/19 01:02:27;;;;;;;12.90;6.95;;;5.20;52.60;;;;;;4925690;28;20059;-46
2023/01/19 01:04:55;;;;;;;13.65;6.57;;;5.20;52.50;;;;;;4923049;28;20067;-48
2023/01/19 01:07:23;;;;;;;12.65;6.57;;;5.20;52.50;;;;;;4922591;28;20059;-50
2023/01/19 01:09:50;;;;;;;13.00;6.38;;;5.20;52.50;;;;;;4925360;28;20051;-47
2023/01/19 01:12:19;;;;;;;16.17;7.40;;;5.20;52.50;;;;;;4932510;28;20078;-46
2023/01/19 01:14:46;;;;;;;14.77;7.20;;;5.20;52.50;;;;;;4922555;28;20486;-45
2023/01/19 01:17:13;;;;;;;12.93;6.32;;;5.20;52.50;;;;;;4934956;28;20066;-46
2023/01/19 01:19:41;;;;;;;12.88;6.78;;;5.20;52.50;;;;;;4927742;28;20058;-46
2023/01/19 01:22:09;;;;;;;12.52;6.47;;;5.20;52.50;;;;;;4920939;28;20066;-46
2023/01/19 01:24:37;;;;;;;15.77;7.20;;;5.20;52.40;;;;;;4927758;28;20048;-47
2023/01/19 01:27:04;;;;;;;13.50;7.18;;;5.20;52.40;;;;;;4933217;28;20058;-49
2023/01/19 01:29:34;;;;;;;13.68;6.80;;;5.20;52.40;;;;;;4941131;28;20415;-47
2023/01/19 01:32:01;;;;;;;12.00;6.47;;;5.10;52.40;;;;;;4939464;28;20055;-47
2023/01/19 01:34:29;;;;;;;14.32;7.03;;;5.10;52.40;;;;;;4940017;28;20418;-43
2023/01/19 01:36:56;;;;;;;13.38;6.50;;;5.10;52.40;;;;;;4938466;28;20391;-44
2023/01/19 01:39:23;;;;;;;10.82;6.47;;;5.20;52.40;;;;;;4941100;28;20062;-47
2023/01/19 01:41:50;;;;;;;16.08;6.90;;;5.10;52.40;;;;;;4939362;28;20410;-45
2023/01/19 01:44:50;;;;;;;10.15;6.43;;;5.10;52.40;;;;;;4938344;28;21434;-47
2023/01/19 01:47:23;;;;;;;17.42;7.97;;;5.10;52.40;;;;;;4938564;28;20058;-46
2023/01/19 01:49:55;;;;;;;11.80;5.95;;;5.10;52.40;;;;;;4971752;28;20051;-46
2023/01/19 01:52:25;;;;;;;12.52;6.65;;;5.10;52.40;;;;;;4937938;28;20415;-47
2023/01/19 01:54:52;;;;;;;12.98;6.93;;;5.10;52.40;;;;;;4939193;28;20059;-46
2023/01/19 01:57:20;;;;;;;13.07;6.53;;;5.10;52.50;;;;;;4941765;28;20058;-44
2023/01/19 01:59:50;;;;;;;11.32;5.85;;;5.10;52.40;;;;;;4940458;28;20054;-45
2023/01/19 02:05:10;;;;;;;10.27;5.50;;;5.10;52.50;;;;;;4942589;28;20442;-49
2023/01/19 02:13:21;;;;;;;8.63;4.88;;;5.00;52.50;;;;;;4947941;28;20418;-47
2023/01/19 02:15:52;;;;;;;9.60;5.20;;;5.00;52.50;;;;;;4940996;28;20059;-50
2023/01/19 02:18:21;;;;;;;8.48;4.97;;;5.00;52.50;;;;;;4943703;28;20051;-46
2023/01/19 02:20:56;;;;;;;7.95;4.68;;;5.00;52.50;;;;;;4940963;28;20323;-47
2023/01/19 02:23:37;;;;;;;9.65;5.22;;;5.00;52.50;;;;;;4940964;28;20423;-46
2023/01/19 02:26:08;;;;;;;9.68;4.53;;;4.90;52.50;;;;;;4941979;28;20082;-45
2023/01/19 02:28:37;;;;;;;10.23;5.00;;;4.90;52.50;;;;;;4944039;28;20055;-45
2023/01/19 02:31:05;;;;;;;8.00;4.95;;;4.90;52.60;;;;;;4940391;28;20403;-44
2023/01/19 02:33:32;;;;;;;10.80;5.30;;;4.90;52.60;;;;;;4943594;28;20062;-43
2023/01/19 02:36:01;;;;;;;9.82;4.85;;;4.90;52.60;;;;;;4940204;28;20067;-46
2023/01/19 02:38:30;;;;;;;8.02;4.78;;;4.90;52.60;;;;;;4935529;28;20411;-47
2023/01/19 02:41:01;;;;;;;9.52;4.65;;;4.90;52.70;;;;;;4943363;28;20051;-45
2023/01/19 02:43:30;;;;;;;9.38;4.75;;;4.90;52.60;;;;;;4942005;28;20419;-45
2023/01/19 02:45:57;;;;;;;8.63;3.90;;;4.90;52.70;;;;;;4940503;28;20078;-46
2023/01/19 02:48:24;;;;;;;9.35;4.53;;;4.90;52.70;;;;;;4943708;28;20494;-47
2023/01/19 02:50:55;;;;;;;7.80;4.70;;;4.90;52.70;;;;;;4942602;28;20062;-46
2023/01/19 02:53:38;;;;;;;8.70;4.82;;;4.90;52.70;;;;;;4942194;28;20059;-46
2023/01/19 02:56:23;;;;;;;7.43;4.43;;;4.90;52.80;;;;;;4941040;28;20066;-49
2023/01/19 02:59:00;;;;;;;10.60;4.72;;;4.90;52.80;;;;;;4942290;28;20059;-45
2023/01/19 03:01:40;;;;;;;10.73;5.25;;;4.90;52.80;;;;;;4943161;28;20043;-49
2023/01/19 03:04:17;;;;;;;9.10;4.63;;;4.90;52.90;;;;;;4942323;28;20424;-45
2023/01/19 03:06:49;;;;;;;7.80;4.40;;;4.80;52.90;;;;;;4941528;28;20055;-46
2023/01/19 03:09:25;;;;;;;7.25;4.25;;;4.90;52.90;;;;;;4941111;28;20058;-46
2023/01/19 03:12:00;;;;;;;7.93;4.57;;;4.90;53.00;;;;;;4942256;28;20058;-48
2023/01/19 03:14:33;;;;;;;10.82;5.05;;;4.90;52.90;;;;;;4943257;28;20055;-48
2023/01/19 03:17:05;;;;;;;9.18;5.15;;;4.90;53.00;;;;;;4940014;28;20498;-45
2023/01/19 03:19:35;;;;;;;8.10;4.18;;;4.90;53.00;;;;;;4941922;28;20051;-46
2023/01/19 03:22:07;;;;;;;11.52;5.55;;;4.90;53.00;;;;;;4940537;28;20964;-45
2023/01/19 03:24:40;;;;;;;9.50;4.47;;;4.90;53.00;;;;;;4940432;28;20047;-44
2023/01/19 03:27:11;;;;;;;6.88;4.50;;;4.90;53.00;;;;;;4940763;28;20062;-46
2023/01/19 03:29:42;;;;;;;9.95;4.82;;;4.90;53.10;;;;;;4924383;28;20496;-47
2023/01/19 03:32:13;;;;;;;9.45;4.72;;;4.90;53.10;;;;;;4922353;28;20052;-47
2023/01/19 03:34:43;;;;;;;7.28;4.30;;;4.90;53.00;;;;;;4919658;28;20055;-45
2023/01/19 03:37:11;;;;;;;11.68;4.72;;;4.90;53.10;;;;;;4921405;28;20622;-46
2023/01/19 03:39:40;;;;;;;8.38;4.85;;;4.90;53.10;;;;;;4920011;28;20614;-46
2023/01/19 03:42:11;;;;;;;8.63;4.65;;;4.90;53.10;;;;;;4922446;28;20047;-47
2023/01/19 03:44:41;;;;;;;8.68;4.93;;;4.90;53.10;;;;;;4920798;28;20051;-46
2023/01/19 03:47:11;;;;;;;8.93;4.28;;;4.90;53.10;;;;;;4922257;28;20060;-44
2023/01/19 03:49:41;;;;;;;11.18;4.80;;;4.90;53.00;;;;;;4920317;28;20403;-46
2023/01/19 03:52:09;;;;;;;10.20;4.43;;;4.90;53.10;;;;;;4922539;28;20056;-48
2023/01/19 03:54:36;;;;;;;12.90;4.78;;;4.90;53.10;;;;;;4919962;28;20060;-47
2023/01/19 03:57:05;;;;;;;9.57;4.88;;;4.90;53.00;;;;;;4922886;28;20051;-48
2023/01/19 03:59:33;;;;;;;10.48;4.43;;;4.90;53.00;;;;;;4922785;28;20066;-46
2023/01/19 04:02:00;;;;;;;7.53;4.53;;;4.80;53.00;;;;;;4922181;28;20062;-49
2023/01/19 04:04:27;;;;;;;9.60;4.35;;;4.90;53.00;;;;;;4921684;28;20412;-46
2023/01/19 04:06:55;;;;;;;8.88;4.20;;;4.90;53.00;;;;;;4920087;28;20059;-44
2023/01/19 04:09:22;;;;;;;6.78;4.60;;;4.80;52.90;;;;;;4920921;28;20052;-46
2023/01/19 04:11:49;;;;;;;7.53;4.30;;;4.80;52.90;;;;;;4922620;28;20415;-49
2023/01/19 04:14:18;;;;;;;8.00;4.57;;;4.80;52.90;;;;;;4919889;28;20063;-47
2023/01/19 04:16:45;;;;;;;10.02;4.15;;;4.80;53.00;;;;;;4921529;28;20104;-46
2023/01/19 04:19:12;;;;;;;7.50;4.13;;;4.80;53.00;;;;;;4923612;28;20479;-47
2023/01/19 04:21:40;;;;;;;7.97;4.38;;;4.80;53.00;;;;;;4921919;28;20059;-45
2023/01/19 04:24:09;;;;;;;8.80;5.20;;;4.80;53.10;;;;;;4920252;28;20539;-48
2023/01/19 04:26:36;;;;;;;7.03;4.07;;;4.80;53.10;;;;;;4921579;28;20804;-48
2023/01/19 04:29:04;;;;;;;7.97;4.53;;;4.80;53.00;;;;;;4930061;28;20566;-47
2023/01/19 04:31:34;;;;;;;7.55;3.95;;;4.90;53.10;;;;;;4928875;28;20060;-48
2023/01/19 04:34:01;;;;;;;7.80;4.38;;;4.80;53.00;;;;;;4928230;28;20054;-48
2023/01/19 04:36:29;;;;;;;8.18;4.20;;;4.80;53.00;;;;;;4926726;28;20051;-47
2023/01/19 04:38:56;;;;;;;6.53;4.05;;;4.80;53.00;;;;;;4926961;28;20051;-45
2023/01/19 04:41:23;;;;;;;10.07;4.68;;;4.80;53.00;;;;;;4931504;28;21895;-48
2023/01/19 04:43:50;;;;;;;7.47;4.25;;;4.90;53.10;;;;;;4926810;28;20059;-45
2023/01/19 04:46:17;;;;;;;7.90;4.07;;;4.80;53.10;;;;;;4919684;28;20048;-45
2023/01/19 04:48:46;;;;;;;10.77;4.40;;;4.90;53.20;;;;;;4934847;28;20103;-44
2023/01/19 04:51:13;;;;;;;7.55;4.38;;;4.90;53.20;;;;;;4932191;28;20460;-48
2023/01/19 04:53:40;;;;;;;6.43;4.38;;;4.90;53.30;;;;;;4920511;28;20055;-49
2023/01/19 04:56:08;;;;;;;6.93;4.30;;;4.90;53.30;;;;;;4923728;28;20063;-46
2023/01/19 04:58:35;;;;;;;8.38;4.63;;;4.90;53.30;;;;;;4928367;28;20052;-45
2023/01/19 05:01:07;;;;;;;10.32;4.30;;;4.90;53.30;;;;;;4923934;28;20059;-46
2023/01/19 05:03:35;;;;;;;8.30;4.60;;;4.90;53.30;;;;;;4919209;28;20431;-47
2023/01/19 05:06:03;;;;;;;7.35;4.00;;;4.90;53.30;;;;;;4922816;28;20063;-44
2023/01/19 05:08:31;;;;;;;8.73;4.50;;;4.90;53.30;;;;;;4931337;28;20055;-48
2023/01/19 05:10:58;;;;;;;11.27;5.65;;;5.00;53.40;;;;;;4920464;28;20052;-47
2023/01/19 05:13:25;;;;;;;9.80;4.82;;;5.00;53.50;;;;;;4932883;28;20071;-47
2023/01/19 05:15:53;;;;;;;9.38;5.35;;;5.00;53.50;;;;;;4920685;28;20058;-46
2023/01/19 05:18:20;;;;;;;9.02;5.20;;;4.90;53.50;;;;;;4923489;28;20063;-44
2023/01/19 05:20:47;;;;;;;9.85;4.85;;;5.00;53.50;;;;;;4926805;28;20526;-47
2023/01/19 05:23:16;;;;;;;9.00;5.00;;;5.00;53.50;;;;;;4933189;28;20055;-48
2023/01/19 05:25:43;;;;;;;9.63;5.15;;;5.00;53.40;;;;;;4927552;28;20063;-47
2023/01/19 05:28:11;;;;;;;8.95;5.03;;;5.00;53.40;;;;;;4934178;28;20055;-47
2023/01/19 05:30:38;;;;;;;11.55;5.72;;;5.00;53.40;;;;;;4939735;28;20491;-46
2023/01/19 05:33:05;;;;;;;10.13;5.57;;;5.00;53.40;;;;;;4940245;28;20050;-48
2023/01/19 05:35:32;;;;;;;10.82;5.25;;;5.10;53.50;;;;;;4940593;28;20062;-50
2023/01/19 05:37:59;;;;;;;11.52;6.30;;;5.10;53.40;;;;;;4939751;28;20499;-50
2023/01/19 05:40:28;;;;;;;8.88;5.30;;;5.10;53.40;;;;;;4937102;28;20047;-46
2023/01/19 05:42:59;;;;;;;12.57;5.97;;;5.10;53.40;;;;;;4940688;28;20051;-45
2023/01/19 05:45:27;;;;;;;11.30;6.45;;;5.10;53.40;;;;;;4939599;28;20062;-47
2023/01/19 05:47:54;;;;;;;11.73;6.03;;;5.10;53.40;;;;;;4942555;28;20059;-49
2023/01/19 05:50:21;;;;;;;10.57;5.60;;;5.20;53.40;;;;;;4938917;28;20058;-49
2023/01/19 05:52:49;;;;;;;9.95;5.57;;;5.20;53.40;;;;;;4967855;28;20062;-46
2023/01/19 05:55:16;;;;;;;11.40;5.78;;;5.20;53.30;;;;;;4939518;28;20056;-45
2023/01/19 05:57:45;;;;;;;12.00;5.90;;;5.20;53.30;;;;;;4939377;28;20059;-46
2023/01/19 06:00:13;;;;;;;9.63;5.95;;;5.20;53.30;;;;;;4939053;28;20059;-47
2023/01/19 06:02:40;;;;;;;10.65;5.47;;;5.20;53.30;;;;;;4939137;28;20395;-45
2023/01/19 06:05:09;;;;;;;11.52;5.85;;;5.30;53.30;;;;;;4939697;28;20419;-49
2023/01/19 06:07:36;;;;;;;10.38;5.88;;;5.30;53.30;;;;;;4938821;28;20055;-47
2023/01/19 06:10:04;;;;;;;10.57;5.60;;;5.30;53.30;;;;;;4938985;28;20070;-51
2023/01/19 06:12:31;;;;;;;12.63;6.28;;;5.30;53.30;;;;;;4941072;28;20055;-48
2023/01/19 06:15:00;;;;;;;10.73;5.60;;;5.30;53.30;;;;;;4938080;28;20052;-47
2023/01/19 06:17:27;;;;;;;8.93;5.53;;;5.30;53.30;;;;;;4940594;28;20058;-47
2023/01/19 06:19:54;;;;;;;8.30;5.47;;;5.40;53.30;;;;;;4938055;28;20059;-48
2023/01/19 06:22:21;;;;;;;9.13;5.53;;;5.40;53.30;;;;;;4936994;28;20047;-48
2023/01/19 06:24:49;;;;;;;15.13;5.30;;;5.40;53.30;;;;;;4966386;28;20060;-46
2023/01/19 06:27:16;;;;;;;11.55;5.50;;;5.40;53.30;;;;;;4940698;28;20055;-48
2023/01/19 06:29:44;;;;;;;13.32;6.00;;;5.50;53.50;;;;;;4939509;28;20407;-49
2023/01/19 06:32:12;;;;;;;10.43;5.63;;;5.50;53.60;;;;;;4937331;28;20062;-48
2023/01/19 06:34:42;;;;;;;8.88;5.20;;;5.40;53.70;;;;;;4936810;28;20629;-47
2023/01/19 06:37:10;;;;;;;13.73;6.43;;;5.50;53.80;;;;;;4938287;28;20407;-49
2023/01/19 06:39:39;;;;;;;15.63;7.22;;;5.50;54.00;;;;;;4972560;28;20062;-45
2023/01/19 06:42:07;;;;;;;14.80;6.50;;;5.50;54.10;;;;;;4938546;28;20055;-47
2023/01/19 06:44:34;;;;;;;9.73;5.82;;;5.50;54.30;;;;;;4939768;28;20052;-47
2023/01/19 06:47:02;;;;;;;11.07;5.97;;;5.50;54.50;;;;;;4938460;28;20054;-47
2023/01/19 06:49:30;;;;;;;14.18;6.65;;;5.40;54.60;;;;;;4938410;28;20051;-50
2023/01/19 06:51:57;;;;;;;14.23;6.85;;;5.50;54.90;;;;;;4935308;28;20411;-48
2023/01/19 06:54:27;;;;;;;21.15;10.68;;;5.50;55.00;;;;;;4938200;28;20062;-49
2023/01/19 06:56:54;;;;;;;21.05;9.30;;;5.50;55.50;;;;;;4941024;28;20051;-50
2023/01/19 06:59:22;;;;;;;26.38;14.55;;;5.40;55.00;;;;;;4940970;28;20051;-48
2023/01/19 07:01:49;;;;;;;17.95;10.57;;;5.50;55.20;;;;;;4951339;28;20053;-49
2023/01/19 07:04:16;;;;;;;14.18;7.85;;;5.50;55.30;;;;;;4960569;28;20055;-51
2023/01/19 07:06:45;;;;;;;17.17;8.65;;;5.40;55.30;;;;;;4940565;28;20070;-45
2023/01/19 07:09:12;;;;;;;17.88;9.73;;;5.40;55.40;;;;;;4942511;28;20460;-47
2023/01/19 07:11:39;;;;;;;22.83;10.05;;;5.40;55.50;;;;;;4941813;28;20054;-46
2023/01/19 07:14:07;;;;;;;20.33;11.07;;;5.40;55.80;;;;;;4941760;28;20067;-47
2023/01/19 07:16:34;;;;;;;15.65;9.68;;;5.40;55.90;;;;;;4943296;28;20055;-50
2023/01/19 07:19:01;;;;;;;14.65;8.20;;;5.40;56.00;;;;;;4942616;28;20081;-50
2023/01/19 07:21:28;;;;;;;14.75;8.32;;;5.40;56.10;;;;;;4938896;28;20481;-48
2023/01/19 07:23:57;;;;;;;20.40;8.02;;;5.40;56.20;;;;;;4941504;28;20055;-47
2023/01/19 07:26:26;;;;;;;24.25;14.85;;;5.40;56.40;;;;;;4940857;28;20043;-51
2023/01/19 07:28:53;;;;;;;19.30;9.52;;;5.30;56.50;;;;;;4938914;28;20060;-49
2023/01/19 07:31:21;;;;;;;13.05;8.60;;;5.30;56.70;;;;;;4934244;28;20070;-47
2023/01/19 07:33:48;;;;;;;13.68;8.15;;;5.30;56.80;;;;;;4974733;28;20058;-50
2023/01/19 07:36:16;;;;;;;13.98;7.85;;;5.30;56.80;;;;;;5021066;28;20049;-45
2023/01/19 07:38:43;;;;;;;11.40;6.90;;;5.30;56.80;;;;;;5020890;28;20049;-49
2023/01/19 07:41:12;;;;;;;15.82;7.38;;;5.40;56.90;;;;;;5021669;28;20045;-48
2023/01/19 07:43:39;;;;;;;12.40;7.88;;;5.40;56.90;;;;;;5022511;28;20076;-49
2023/01/19 07:46:07;;;;;;;12.77;7.65;;;5.40;56.90;;;;;;5020875;28;20053;-50
2023/01/19 07:48:34;;;;;;;11.05;7.22;;;5.40;56.90;;;;;;5021181;28;20064;-49
2023/01/19 07:51:04;;;;;;;11.38;7.47;;;5.40;57.00;;;;;;5014740;28;20528;-49
2023/01/19 07:53:32;;;;;;;18.15;7.70;;;5.40;57.00;;;;;;5021454;28;20045;-47
2023/01/19 07:55:59;;;;;;;10.95;6.70;;;5.40;57.00;;;;;;5019457;28;20410;-50
2023/01/19 07:58:28;;;;;;;11.85;7.22;;;5.40;57.20;;;;;;5023681;28;20061;-48
2023/01/19 08:00:55;;;;;;;12.05;6.15;;;5.40;57.20;;;;;;5022762;28;20402;-49
2023/01/19 08:03:22;;;;;;;10.55;6.60;;;5.40;57.20;;;;;;5022784;28;20049;-50
2023/01/19 08:05:51;;;;;;;14.13;6.70;;;5.40;57.30;;;;;;5017976;28;20136;-51
2023/01/19 08:08:18;;;;;;;11.98;7.05;;;5.40;57.30;;;;;;5021694;28;20510;-48
2023/01/19 08:10:49;;;;;;;11.13;6.70;;;5.40;57.40;;;;;;5016986;28;20057;-50
2023/01/19 08:13:16;;;;;;;9.25;6.38;;;5.40;57.50;;;;;;5021274;28;20381;-47
2023/01/19 08:15:45;;;;;;;15.05;6.40;;;5.40;57.50;;;;;;5014238;28;20049;-46
2023/01/19 08:18:14;;;;;;;10.57;6.05;;;5.40;57.60;;;;;;5016373;28;20053;-50
2023/01/19 08:20:41;;;;;;;12.10;6.88;;;5.40;57.60;;;;;;5020960;28;20069;-48
2023/01/19 08:23:09;;;;;;;9.10;5.22;;;5.40;57.70;;;;;;5019020;28;20596;-47
2023/01/19 08:25:38;;;;;;;13.68;5.88;;;5.40;57.80;;;;;;5017158;28;20057;-46
2023/01/19 08:28:07;;;;;;;9.68;6.15;;;5.40;57.90;;;;;;4994550;28;20059;-48
2023/01/19 08:30:35;;;;;;;8.27;5.57;;;5.40;57.90;;;;;;4961997;28;20047;-46
2023/01/19 08:33:06;;;;;;;11.13;6.03;;;5.40;57.90;;;;;;4960876;28;20046;-50
2023/01/19 08:35:36;;;;;;;7.45;5.57;;;5.40;58.00;;;;;;4961434;28;20053;-50
2023/01/19 08:38:04;;;;;;;10.80;6.60;;;5.40;58.00;;;;;;4961024;28;20055;-50
2023/01/19 08:40:33;;;;;;;9.68;5.80;;;5.40;58.00;;;;;;4958999;28;20050;-47
2023/01/19 08:43:02;;;;;;;9.93;5.65;;;5.40;58.10;;;;;;4960763;28;20058;-49
2023/01/19 08:45:29;;;;;;;9.82;5.53;;;5.40;58.30;;;;;;4959307;28;20066;-51
2023/01/19 08:47:57;;;;;;;8.55;5.60;;;5.40;58.30;;;;;;4960323;28;20054;-46
2023/01/19 08:50:26;;;;;;;13.15;5.82;;;5.40;58.20;;;;;;4955211;28;20054;-49
2023/01/19 08:52:56;;;;;;;9.45;5.78;;;5.50;58.30;;;;;;4960455;28;20474;-47
2023/01/19 08:55:23;;;;;;;8.77;5.35;;;5.40;58.20;;;;;;4960069;28;20070;-48
2023/01/19 08:57:52;;;;;;;9.50;5.80;;;5.40;58.30;;;;;;4959948;28;20058;-49
2023/01/19 09:00:21;;;;;;;10.18;6.00;;;5.50;58.40;;;;;;4959165;28;20125;-49
2023/01/19 09:02:48;;;;;;;12.55;6.40;;;5.50;58.40;;;;;;4959570;28;20932;-48
2023/01/19 09:05:15;;;;;;;16.20;9.70;;;5.50;58.30;;;;;;4960663;28;20051;-50
2023/01/19 09:07:46;;;;;;;15.63;9.20;;;5.50;58.30;;;;;;4959708;28;20065;-51
2023/01/19 09:10:14;;;;;;;12.02;8.48;;;5.50;58.20;;;;;;4956865;28;20056;-50
2023/01/19 09:12:42;;;;;;;15.30;9.38;;;5.50;58.20;;;;;;4962149;28;20071;-50
2023/01/19 09:15:12;;;;;;;13.00;7.20;;;5.50;58.20;;;;;;4961466;28;20071;-46
2023/01/19 09:17:40;;;;;;;12.05;6.47;;;5.50;58.30;;;;;;4958299;28;20067;-52
2023/01/19 09:20:08;;;;;;;14.13;6.15;;;5.60;58.40;;;;;;4956080;28;20513;-52
2023/01/19 09:22:38;;;;;;;12.60;5.63;;;5.50;58.60;;;;;;4958856;28;20062;-52
2023/01/19 09:25:08;;;;;;;12.52;5.53;;;5.60;58.60;;;;;;4958079;28;20061;-50
2023/01/19 09:27:35;;;;;;;9.50;5.28;;;5.60;58.60;;;;;;4956902;28;20078;-49
2023/01/19 09:30:03;;;;;;;9.85;6.05;;;5.60;58.50;;;;;;4957801;28;20073;-47
2023/01/19 09:32:30;;;;;;;12.10;5.85;;;5.60;58.40;;;;;;4957348;28;20521;-49
2023/01/19 09:34:58;;;;;;;11.07;6.22;;;5.60;58.30;;;;;;4956690;28;20047;-46
2023/01/19 09:37:26;;;;;;;12.15;5.35;;;5.60;58.30;;;;;;4954085;28;20585;-46
2023/01/19 09:39:53;;;;;;;12.70;5.07;;;5.70;58.30;;;;;;4954887;28;20055;-44
2023/01/19 09:42:27;;;;;;;12.20;6.32;;;5.70;58.20;;;;;;4958046;28;20509;-46
2023/01/19 09:44:54;;;;;;;14.95;7.03;;;5.70;58.20;;;;;;4956938;28;20051;-49
2023/01/19 09:47:25;;;;;;;9.75;5.90;;;5.70;58.10;;;;;;4960723;28;20073;-50
2023/01/19 09:49:57;;;;;;;17.45;7.63;;;5.70;58.10;;;;;;4960753;28;20418;-48
2023/01/19 09:52:24;;;;;;;14.10;6.80;;;5.80;58.10;;;;;;4960927;28;20482;-47
2023/01/19 09:54:54;;;;;;;13.60;6.93;;;5.80;58.10;;;;;;4956024;28;20047;-49
2023/01/19 09:57:24;;;;;;;14.07;6.95;;;5.70;58.00;;;;;;4954848;28;20061;-48
2023/01/19 09:59:56;;;;;;;12.23;5.75;;;5.80;58.00;;;;;;4958925;28;20066;-49
2023/01/19 10:02:35;;;;;;;13.13;6.57;;;5.80;58.10;;;;;;4958603;28;20521;-48
2023/01/19 10:05:04;;;;;;;12.98;6.82;;;5.80;58.10;;;;;;4958515;28;20055;-51
2023/01/19 10:07:52;;;;;;;17.77;6.80;;;5.80;58.10;;;;;;4959109;28;20059;-49
2023/01/19 10:10:21;;;;;;;17.83;11.02;;;5.80;58.10;;;;;;4957536;28;20051;-48
2023/01/19 10:13:09;;;;;;;11.15;7.05;;;5.80;58.00;;;;;;4956678;28;20058;-46
2023/01/19 10:15:46;;;;;;;19.77;12.40;;;5.80;58.00;;;;;;4959388;28;20390;-48
2023/01/19 10:18:18;;;;;;;19.25;9.35;;;5.90;58.00;;;;;;4958500;28;20062;-49
2023/01/19 10:20:49;;;;;;;16.38;8.88;;;5.90;57.90;;;;;;4958239;28;20064;-48
2023/01/19 10:23:36;;;;;;;19.58;10.25;;;5.90;57.80;;;;;;4958525;28;20047;-45
2023/01/19 10:26:11;;;;;;;16.52;9.07;;;5.90;57.80;;;;;;4957760;28;20541;-47
2023/01/19 10:28:40;;;;;;;20.23;10.00;;;6.00;57.80;;;;;;4959427;28;20077;-47
2023/01/19 10:31:08;;;;;;;16.08;7.13;;;6.00;57.70;;;;;;4963336;28;20495;-49
2023/01/19 10:33:36;;;;;;;22.13;9.73;;;6.00;57.70;;;;;;4960451;28;20697;-46
2023/01/19 10:36:05;;;;;;;17.38;10.10;;;6.00;57.70;;;;;;4962249;28;20513;-50
2023/01/19 10:38:35;;;;;;;22.58;10.25;;;6.00;57.70;;;;;;4959971;28;20545;-49
2023/01/19 10:41:06;;;;;;;14.63;7.72;;;6.00;57.60;;;;;;4960536;28;20059;-49
2023/01/19 10:43:41;;;;;;;15.00;8.02;;;6.00;57.60;;;;;;4958865;28;20506;-47
2023/01/19 10:46:20;;;;;;;17.30;6.97;;;6.10;57.70;;;;;;4958910;28;20046;-48
2023/01/19 10:48:50;;;;;;;14.75;7.05;;;6.10;57.70;;;;;;4961073;28;20589;-46
2023/01/19 10:51:17;;;;;;;18.58;8.43;;;6.10;57.70;;;;;;4961487;28;20054;-49
2023/01/19 10:53:55;;;;;;;14.85;7.57;;;6.10;57.70;;;;;;4962451;28;20051;-49
2023/01/19 10:56:25;;;;;;;32.80;16.70;;;6.10;57.70;;;;;;4963730;28;20052;-49
2023/01/19 10:58:54;;;;;;;31.52;16.10;;;6.10;57.70;;;;;;4964252;28;20522;-49
2023/01/19 11:01:25;;;;;;;36.70;18.98;;;6.10;57.70;;;;;;4962811;28;20055;-49
2023/01/19 11:03:55;;;;;;;19.60;11.80;;;6.10;57.70;;;;;;4960530;28;20062;-48
2023/01/19 11:06:28;;;;;;;15.40;8.82;;;6.10;57.60;;;;;;4962010;28;20058;-47
2023/01/19 11:09:11;;;;;;;17.35;8.48;;;6.20;57.60;;;;;;4961492;28;20059;-47
2023/01/19 11:11:50;;;;;;;17.95;8.02;;;6.10;57.60;;;;;;4959733;28;20521;-48
2023/01/19 11:14:23;;;;;;;16.40;8.23;;;6.10;57.50;;;;;;4961004;28;20053;-47
2023/01/19 11:16:54;;;;;;;14.27;6.78;;;6.10;57.50;;;;;;4962059;28;20063;-47
2023/01/19 11:19:29;;;;;;;16.20;9.10;;;6.20;57.50;;;;;;4963414;28;20062;-48
2023/01/19 11:22:11;;;;;;;16.05;7.97;;;6.20;57.50;;;;;;4963075;28;20058;-50
2023/01/19 11:24:39;;;;;;;17.05;8.48;;;6.20;57.50;;;;;;4960571;28;20050;-47
2023/01/19 11:27:07;;;;;;;17.10;8.45;;;6.20;57.40;;;;;;4963531;28;20418;-48
2023/01/19 11:29:37;;;;;;;21.27;9.63;;;6.20;57.80;;;;;;4973748;28;20053;-46
2023/01/19 11:32:11;;;;;;;20.40;9.40;;;6.20;57.40;;;;;;4961838;28;20045;-47
2023/01/19 11:34:38;;;;;;;15.95;9.07;;;6.20;57.40;;;;;;4948111;28;20487;-46
2023/01/19 11:37:28;;;;;;;20.80;8.52;;;6.20;57.40;;;;;;4939489;28;20054;-50
2023/01/19 11:39:57;;;;;;;17.08;8.73;;;6.20;57.40;;;;;;4941071;28;20063;-49
2023/01/19 11:42:26;;;;;;;24.30;8.50;;;6.20;57.40;;;;;;4939698;28;20055;-51
2023/01/19 11:45:02;;;;;;;13.68;6.95;;;6.20;57.60;;;;;;4941604;28;20522;-51
2023/01/19 11:47:35;;;;;;;21.15;8.00;;;6.20;57.80;;;;;;4938877;28;20051;-48
2023/01/19 11:50:06;;;;;;;23.58;7.90;;;6.20;57.90;;;;;;4964056;28;20049;-50
2023/01/19 11:52:39;;;;;;;18.23;7.05;;;6.20;58.10;;;;;;4949753;28;20426;-50
2023/01/19 11:55:16;;;;;;;20.50;8.13;;;6.20;58.10;;;;;;4938732;28;20055;-51
2023/01/19 11:57:46;;;;;;;21.40;7.35;;;6.20;58.20;;;;;;4940391;28;20051;-49
2023/01/19 12:00:24;;;;;;;18.48;7.18;;;6.30;58.20;;;;;;4939950;28;20084;-47
2023/01/19 12:02:58;;;;;;;18.98;7.35;;;6.30;58.10;;;;;;4939532;28;20061;-51
2023/01/19 12:05:30;;;;;;;17.23;7.07;;;6.30;58.00;;;;;;4942100;28;20480;-48
2023/01/19 12:07:59;;;;;;;14.20;6.65;;;6.40;58.00;;;;;;4942882;28;20063;-48
2023/01/19 12:10:29;;;;;;;15.75;7.35;;;6.40;57.90;;;;;;4940969;28;20055;-50
2023/01/19 12:12:57;;;;;;;17.67;7.97;;;6.40;57.80;;;;;;4944903;28;20070;-49
2023/01/19 12:15:30;;;;;;;16.20;7.20;;;6.50;57.80;;;;;;4943367;28;20059;-53
2023/01/19 12:18:00;;;;;;;20.70;7.22;;;6.50;57.80;;;;;;4941230;28;20066;-49
2023/01/19 12:20:31;;;;;;;19.75;6.78;;;6.50;57.70;;;;;;4946444;28;20055;-51
2023/01/19 12:23:08;;;;;;;15.52;7.32;;;6.50;57.70;;;;;;4972318;28;20415;-52
2023/01/19 12:25:46;;;;;;;19.95;7.10;;;6.50;57.60;;;;;;4942917;28;20051;-47
2023/01/19 12:28:16;;;;;;;16.02;6.25;;;6.60;57.60;;;;;;4948278;28;20067;-50
2023/01/19 12:30:50;;;;;;;23.85;6.90;;;6.60;57.60;;;;;;4963568;28;20074;-49
2023/01/19 12:33:22;;;;;;;13.27;6.35;;;6.60;57.50;;;;;;4959419;28;20407;-49
2023/01/19 12:35:58;;;;;;;15.93;5.93;;;6.60;57.50;;;;;;4962719;28;20508;-49
2023/01/19 12:38:47;;;;;;;21.17;7.57;;;6.70;58.00;;;;;;4961223;28;20058;-49
2023/01/19 12:41:33;;;;;;;15.80;6.63;;;6.70;57.50;;;;;;4963522;28;20457;-48
2023/01/19 12:44:26;;;;;;;19.38;7.18;;;6.80;57.40;;;;;;4962587;28;20051;-49
2023/01/19 12:47:02;;;;;;;17.98;6.70;;;6.80;57.40;;;;;;4962083;28;20069;-51
2023/01/19 12:49:32;;;;;;;20.52;6.50;;;6.80;57.30;;;;;;4959908;28;20055;-50
2023/01/19 12:52:16;;;;;;;17.83;6.72;;;6.80;57.30;;;;;;4962238;28;20059;-50
2023/01/19 12:54:53;;;;;;;18.02;7.07;;;6.90;57.30;;;;;;4961513;28;20051;-53
2023/01/19 12:57:25;;;;;;;17.02;6.63;;;6.90;57.20;;;;;;4960920;28;20051;-50
2023/01/19 12:59:57;;;;;;;16.38;5.85;;;6.90;57.20;;;;;;4961814;28;20059;-50
2023/01/19 13:02:53;;;;;;;14.95;6.15;;;6.90;57.20;;;;;;4964665;28;20065;-49
2023/01/19 13:05:40;;;;;;;19.55;6.18;;;6.90;57.30;;;;;;4958797;28;20065;-51
2023/01/19 13:08:20;;;;;;;17.98;6.05;;;7.00;57.30;;;;;;4961867;28;20062;-50
2023/01/19 13:11:12;;;;;;;17.58;6.70;;;7.00;57.40;;;;;;4961423;28;20423;-50